Track Мезенцева Ольга

Time Latitude Longitude Accuracy (66% radius in meters) Altitude (meters) Speed (km/hour) Bearing (degrees) Battery (%) GPS flag
11:21:30 60.370579 29.556158 48 72 0 69.046951293945 44 0 delete
11:21:17 60.370579 29.556158 48 72 0 69.046951293945 44 0 delete
11:21:05 60.370579 29.556158 48 72 0 69.046951293945 44 0 delete
10:20:42 60.370621 29.556190 24 74 0 69.046951293945 44 1 delete
10:20:38 60.370621 29.556190 24 74 0 69.046951293945 44 1 delete
10:20:25 60.370621 29.556190 24 78 0 69.046951293945 44 1 delete
10:20:13 60.370621 29.556190 32 73 0 69.046951293945 44 1 delete
10:20:06 60.370579 29.556158 48 72 0 69.046951293945 44 1 delete
11:20:03 60.371005 29.557092 32 63 0 69.046951293945 44 0 delete
11:19:51 60.371005 29.557092 32 63 0 69.046951293945 44 0 delete
11:19:38 60.371005 29.557092 32 63 0 69.046951293945 44 0 delete
11:19:26 60.371005 29.557092 32 63 0 69.046951293945 44 0 delete
11:19:13 60.371005 29.557092 32 63 0 69.046951293945 44 0 delete
11:19:01 60.371005 29.557092 32 63 0 69.046951293945 44 0 delete
11:18:48 60.371005 29.557092 32 63 0 69.046951293945 44 0 delete
11:18:35 60.371005 29.557092 32 63 0 69.046951293945 44 0 delete
11:18:23 60.371005 29.557092 32 63 0 69.046951293945 44 0 delete
11:18:10 60.371005 29.557092 32 63 0 69.046951293945 44 0 delete
11:17:57 60.371005 29.557092 32 63 0 69.046951293945 44 0 delete
11:17:44 60.371005 29.557092 32 63 0 69.046951293945 44 0 delete
11:17:31 60.371005 29.557092 32 63 0 69.046951293945 44 0 delete
11:17:19 60.371005 29.557092 32 63 0 69.046951293945 44 0 delete
11:17:07 60.371005 29.557092 32 63 0 69.046951293945 44 0 delete
11:16:54 60.371005 29.557092 32 63 0 69.046951293945 44 0 delete
11:16:41 60.371005 29.557092 32 63 0 69.046951293945 44 0 delete
11:16:28 60.371005 29.557092 32 63 0 69.046951293945 50 0 delete
11:16:16 60.371005 29.557092 32 63 0 69.046951293945 50 0 delete
11:16:03 60.371005 29.557092 32 63 0 69.046951293945 50 0 delete
11:15:51 60.371005 29.557092 32 63 0 69.046951293945 50 0 delete
11:15:38 60.371005 29.557092 32 63 0 69.046951293945 50 0 delete
11:15:25 60.371005 29.557092 32 63 0 69.046951293945 50 0 delete
11:15:12 60.371005 29.557092 32 63 0 69.046951293945 50 0 delete
11:14:58 60.371005 29.557092 32 63 0 69.046951293945 50 0 delete
11:14:45 60.371005 29.557092 32 63 0 69.046951293945 50 0 delete
11:14:33 60.371005 29.557092 32 63 0 69.046951293945 50 0 delete
10:14:07 60.371005 29.557092 32 63 0 69.046951293945 50 1 delete
10:14:05 60.370988 29.556995 32 63 1.7986238002777 69.046951293945 50 1 delete
10:14:03 60.370970 29.556886 24 49 1.5674736499786 64.198699951172 50 1 delete
10:14:02 60.370962 29.556862 32 51 1.5430458784103 68.357192993164 50 1 delete
10:13:58 60.370944 29.556755 24 58 1.4502096176147 84.000991821289 50 1 delete
10:13:55 60.370939 29.556631 24 61 1.2107183933258 84.242134094238 50 1 delete
10:13:51 60.370931 29.556513 16 54 0 35.14909362793 50 1 delete
10:13:38 60.370941 29.556477 16 64 0 35.14909362793 50 1 delete
10:13:25 60.370941 29.556477 16 63 0 35.14909362793 50 1 delete
10:13:12 60.370941 29.556477 16 54 0 35.14909362793 50 1 delete
10:13:11 60.370941 29.556477 16 52 0 35.14909362793 50 1 delete
10:12:59 60.370923 29.556511 16 64 0 163.78190612793 50 1 delete
10:12:46 60.370915 29.556509 12 62 0 163.78190612793 50 1 delete
10:12:40 60.370894 29.556491 24 70 0 163.78190612793 50 1 delete
10:12:34 60.370917 29.556477 12 71 0 169.78173828125 50 1 delete